Time;durP1;ratioP1;P1;durP2;ratioP2;P2;SDS_P1;SDS_P2;PMS_P1;PMS_P2;Temp;Humidity;BMP_temperature;BMP_pressure;BME280_temperature;BME280_humidity;BME280_pressure;Samples;Min_cycle;Max_cycle;Signal;HPM_P1;HPM_P2
2021/09/16 00:01:14;;;;;;;11.60;8.15;;;15.20;99.90;;;;;;4142432;28;20038;-66
2021/09/16 00:03:15;;;;;;;12.40;7.47;;;15.20;99.90;;;;;;4141005;28;20026;-65
2021/09/16 00:05:17;;;;;;;13.88;8.32;;;15.10;99.90;;;;;;4142054;28;20104;-67
2021/09/16 00:07:19;;;;;;;11.20;8.65;;;15.10;99.90;;;;;;4141240;28;20033;-65
2021/09/16 00:09:20;;;;;;;12.25;7.35;;;15.10;99.90;;;;;;4140614;28;20469;-65
2021/09/16 00:11:21;;;;;;;15.07;7.45;;;15.10;99.90;;;;;;4142082;28;20038;-66
2021/09/16 00:13:22;;;;;;;12.25;8.43;;;15.00;99.90;;;;;;4140645;28;20076;-65
2021/09/16 00:15:24;;;;;;;9.35;7.30;;;15.00;99.90;;;;;;4141850;28;20426;-64
2021/09/16 00:17:25;;;;;;;16.73;8.38;;;15.00;99.90;;;;;;4140422;28;20021;-65
2021/09/16 00:19:26;;;;;;;13.48;7.57;;;14.90;99.90;;;;;;4141963;28;20029;-65
2021/09/16 00:21:27;;;;;;;13.30;8.50;;;14.90;99.90;;;;;;4139063;28;20022;-66
2021/09/16 00:23:28;;;;;;;16.30;8.82;;;14.80;99.90;;;;;;4142275;28;20030;-66
2021/09/16 00:25:29;;;;;;;11.77;8.98;;;14.70;99.90;;;;;;4139916;28;20042;-66
2021/09/16 00:27:30;;;;;;;14.57;9.07;;;14.70;99.90;;;;;;4142113;28;20085;-66
2021/09/16 00:29:32;;;;;;;14.90;9.50;;;14.60;99.90;;;;;;4140374;28;20617;-66
2021/09/16 00:31:34;;;;;;;16.42;10.52;;;14.60;99.90;;;;;;4141882;28;20050;-66
2021/09/16 00:33:36;;;;;;;17.90;10.80;;;14.50;99.90;;;;;;4140342;28;20017;-66
2021/09/16 00:35:37;;;;;;;14.73;9.48;;;14.50;99.90;;;;;;4141751;28;20410;-66
2021/09/16 00:37:38;;;;;;;11.20;8.30;;;14.50;99.90;;;;;;4140942;28;20352;-66
2021/09/16 00:39:39;;;;;;;10.25;8.18;;;14.60;99.90;;;;;;4140688;28;20460;-66
2021/09/16 00:41:41;;;;;;;14.05;8.13;;;14.60;99.90;;;;;;4141500;28;20096;-66
2021/09/16 00:43:42;;;;;;;11.13;7.88;;;14.60;99.90;;;;;;4140704;28;20080;-66
2021/09/16 00:45:43;;;;;;;14.32;7.93;;;14.70;99.90;;;;;;4141668;28;20621;-66
2021/09/16 00:47:47;;;;;;;15.50;8.50;;;14.70;99.90;;;;;;4139836;28;20026;-65
2021/09/16 00:49:48;;;;;;;9.57;8.20;;;14.70;99.90;;;;;;4141100;28;20034;-66
2021/09/16 00:51:49;;;;;;;16.40;7.97;;;14.70;99.90;;;;;;4139931;28;20286;-66
2021/09/16 00:53:54;;;;;;;10.18;7.18;;;14.60;99.90;;;;;;4142167;28;20049;-67
2021/09/16 00:55:57;;;;;;;15.13;7.78;;;14.60;99.90;;;;;;4140379;28;20088;-66
2021/09/16 00:58:02;;;;;;;16.13;8.70;;;14.60;99.90;;;;;;4141322;28;20034;-65
2021/09/16 01:00:07;;;;;;;11.10;7.85;;;14.60;99.90;;;;;;4139859;28;20026;-65
2021/09/16 01:02:08;;;;;;;13.43;7.90;;;14.60;99.90;;;;;;4140421;28;20045;-65
2021/09/16 01:04:10;;;;;;;9.35;7.45;;;14.60;99.90;;;;;;4139594;28;20037;-65
2021/09/16 01:06:11;;;;;;;10.82;8.00;;;14.50;99.90;;;;;;4140682;28;20461;-66
2021/09/16 01:08:12;;;;;;;11.68;7.57;;;14.40;99.90;;;;;;4139952;28;20430;-65
2021/09/16 01:10:13;;;;;;;13.53;7.70;;;14.30;99.90;;;;;;4141058;28;20104;-65
2021/09/16 01:12:15;;;;;;;11.43;7.80;;;14.30;99.90;;;;;;4140400;28;20029;-65
2021/09/16 01:14:28;;;;;;;12.02;8.43;;;14.30;99.90;;;;;;4140988;28;20463;-66
2021/09/16 01:16:29;;;;;;;13.27;10.70;;;14.30;99.90;;;;;;4140552;28;20088;-65
2021/09/16 01:18:30;;;;;;;20.70;12.63;;;14.30;99.90;;;;;;4140531;28;20030;-65
2021/09/16 01:20:33;;;;;;;17.13;10.80;;;14.20;99.90;;;;;;4139329;28;20029;-66
2021/09/16 01:22:35;;;;;;;17.00;9.82;;;14.20;99.90;;;;;;4139663;28;20022;-66
2021/09/16 01:24:36;;;;;;;11.87;8.73;;;14.10;99.90;;;;;;4141428;28;20073;-66
2021/09/16 01:26:38;;;;;;;13.37;9.30;;;14.10;99.90;;;;;;4139336;28;20042;-66
2021/09/16 01:28:40;;;;;;;14.13;9.10;;;14.00;99.90;;;;;;4141261;28;20092;-66
2021/09/16 01:30:43;;;;;;;12.57;9.10;;;14.00;99.90;;;;;;4138809;28;20046;-66
2021/09/16 01:32:44;;;;;;;11.20;8.70;;;14.00;99.90;;;;;;4141135;28;20100;-66
2021/09/16 01:34:45;;;;;;;13.97;9.33;;;13.90;99.90;;;;;;4139463;28;20037;-66
2021/09/16 01:36:49;;;;;;;11.73;8.70;;;13.90;99.90;;;;;;4141317;28;20042;-67
2021/09/16 01:38:50;;;;;;;13.23;9.47;;;13.80;99.90;;;;;;4139242;28;20112;-66
2021/09/16 01:40:52;;;;;;;11.17;8.80;;;13.70;99.90;;;;;;4141515;28;20038;-67
2021/09/16 01:42:53;;;;;;;17.37;9.60;;;13.60;99.90;;;;;;4139622;28;20494;-66
2021/09/16 01:44:54;;;;;;;12.87;9.10;;;13.60;99.90;;;;;;4141275;28;20801;-66
2021/09/16 01:46:55;;;;;;;14.63;9.90;;;13.50;99.90;;;;;;4139562;28;20285;-66
2021/09/16 01:48:59;;;;;;;19.10;9.50;;;13.50;99.90;;;;;;4140017;28;20540;-66
2021/09/16 01:51:00;;;;;;;15.23;9.30;;;13.40;99.90;;;;;;4140152;28;20042;-66
2021/09/16 01:53:01;;;;;;;13.23;9.47;;;13.40;99.90;;;;;;4139868;28;20042;-66
2021/09/16 01:55:03;;;;;;;15.50;9.80;;;13.40;99.90;;;;;;4140762;28;20430;-66
2021/09/16 01:57:04;;;;;;;15.80;10.33;;;13.30;99.90;;;;;;4138704;28;20038;-66
2021/09/16 01:59:05;;;;;;;16.93;9.40;;;13.30;99.90;;;;;;4140716;28;20100;-66
2021/09/16 02:01:06;;;;;;;19.60;10.63;;;13.30;99.90;;;;;;4138493;28;20131;-66
2021/09/16 02:03:07;;;;;;;14.33;9.90;;;13.30;99.90;;;;;;4140383;28;20034;-65
2021/09/16 02:05:09;;;;;;;16.87;10.73;;;13.30;99.90;;;;;;4139124;28;20054;-65
2021/09/16 02:07:10;;;;;;;17.50;10.10;;;13.30;99.90;;;;;;4141015;28;20441;-66
2021/09/16 02:09:12;;;;;;;15.43;10.70;;;13.30;99.90;;;;;;4139167;28;20038;-66
2021/09/16 02:11:13;;;;;;;19.53;11.37;;;13.30;99.90;;;;;;4140845;28;20038;-66
2021/09/16 02:13:14;;;;;;;19.37;10.27;;;13.30;99.90;;;;;;4139130;28;20493;-66
2021/09/16 02:15:15;;;;;;;21.40;11.77;;;13.30;99.90;;;;;;4140442;28;20498;-64
2021/09/16 02:17:16;;;;;;;16.13;10.53;;;13.30;99.90;;;;;;4139347;28;20022;-66
2021/09/16 02:19:17;;;;;;;20.50;12.33;;;13.20;99.90;;;;;;4140028;28;20127;-66
2021/09/16 02:21:18;;;;;;;17.47;11.07;;;13.10;99.90;;;;;;4137989;28;20046;-65
2021/09/16 02:23:19;;;;;;;18.73;11.43;;;13.10;99.90;;;;;;4138741;28;20486;-65
2021/09/16 02:25:21;;;;;;;19.87;11.80;;;13.00;99.90;;;;;;4140516;28;20076;-65
2021/09/16 02:27:22;;;;;;;17.83;12.17;;;12.90;99.90;;;;;;4138947;28;20026;-66
2021/09/16 02:29:23;;;;;;;16.20;10.27;;;12.90;99.90;;;;;;4140633;28;20049;-66
2021/09/16 02:31:24;;;;;;;15.73;10.87;;;12.80;99.90;;;;;;4138381;28;20454;-65
2021/09/16 02:33:25;;;;;;;17.80;9.53;;;12.70;99.90;;;;;;4140682;28;20512;-66
2021/09/16 02:35:26;;;;;;;14.10;11.17;;;12.70;99.90;;;;;;4137238;28;20034;-67
2021/09/16 02:37:28;;;;;;;21.17;12.70;;;12.80;99.90;;;;;;4141062;28;20540;-66
2021/09/16 02:39:29;;;;;;;17.87;11.03;;;12.80;99.90;;;;;;4138603;28;20471;-65
2021/09/16 02:41:30;;;;;;;22.83;11.47;;;12.70;99.90;;;;;;4138990;28;20108;-65
2021/09/16 02:43:31;;;;;;;20.27;12.17;;;12.70;99.90;;;;;;4138529;28;20038;-65
2021/09/16 02:45:32;;;;;;;19.37;11.40;;;12.60;99.90;;;;;;4139856;28;20100;-66
2021/09/16 02:47:33;;;;;;;18.33;11.67;;;12.60;99.90;;;;;;4138948;28;20084;-66
2021/09/16 02:49:35;;;;;;;21.07;12.43;;;12.70;99.90;;;;;;4139423;28;20401;-64
2021/09/16 02:51:36;;;;;;;24.37;11.53;;;12.70;99.90;;;;;;4139345;28;20037;-66
2021/09/16 02:53:37;;;;;;;22.67;12.77;;;12.70;99.90;;;;;;4138616;28;21623;-66
2021/09/16 02:55:38;;;;;;;22.70;12.13;;;12.70;99.90;;;;;;4140074;28;20060;-66
2021/09/16 02:57:39;;;;;;;18.37;12.43;;;12.80;99.90;;;;;;4139073;28;20018;-65
2021/09/16 02:59:40;;;;;;;16.70;12.00;;;12.80;99.90;;;;;;4140023;28;20034;-67
2021/09/16 03:01:41;;;;;;;19.03;12.90;;;12.80;99.90;;;;;;4138780;28;20046;-66
2021/09/16 03:03:42;;;;;;;18.20;11.73;;;12.80;99.90;;;;;;4140286;28;20084;-66
2021/09/16 03:05:46;;;;;;;20.53;11.80;;;12.80;99.90;;;;;;4138436;28;20484;-66
2021/09/16 03:07:47;;;;;;;21.70;12.93;;;12.80;99.90;;;;;;4140370;28;20084;-66
2021/09/16 03:09:48;;;;;;;20.43;13.80;;;12.80;99.90;;;;;;4137687;28;20044;-66
2021/09/16 03:11:50;;;;;;;24.37;13.00;;;12.80;99.90;;;;;;4140426;28;20038;-66
2021/09/16 03:13:51;;;;;;;28.13;13.00;;;12.80;99.90;;;;;;4140561;28;20080;-65
2021/09/16 03:15:52;;;;;;;18.80;12.47;;;12.80;99.90;;;;;;4143207;28;20080;-65
2021/09/16 03:17:53;;;;;;;20.30;12.57;;;12.70;99.90;;;;;;4141563;28;20038;-66
2021/09/16 03:19:54;;;;;;;19.93;12.80;;;12.60;99.90;;;;;;4142322;28;20092;-66
2021/09/16 03:21:56;;;;;;;26.83;12.80;;;12.70;99.90;;;;;;4141682;28;20076;-66
2021/09/16 03:23:57;;;;;;;25.23;12.37;;;12.60;99.90;;;;;;4141860;28;20778;-67
2021/09/16 03:25:58;;;;;;;26.90;13.77;;;12.60;99.90;;;;;;4142529;28;20076;-66
2021/09/16 03:27:59;;;;;;;25.20;13.63;;;12.50;99.90;;;;;;4141260;28;20030;-66
2021/09/16 03:30:01;;;;;;;21.13;12.53;;;12.50;99.90;;;;;;4142924;28;20053;-66
2021/09/16 03:32:02;;;;;;;24.07;12.97;;;12.50;99.90;;;;;;4141036;28;20030;-66
2021/09/16 03:34:04;;;;;;;23.57;13.80;;;12.50;99.90;;;;;;4142849;28;20144;-66
2021/09/16 03:36:06;;;;;;;20.23;13.33;;;12.40;99.90;;;;;;4140979;28;20670;-66
2021/09/16 03:38:07;;;;;;;22.50;13.60;;;12.40;99.90;;;;;;4142978;28;20034;-66
2021/09/16 03:40:09;;;;;;;22.13;13.63;;;12.40;99.90;;;;;;4140888;28;20112;-66
2021/09/16 03:42:10;;;;;;;22.33;13.70;;;12.40;99.90;;;;;;4142089;28;20038;-66
2021/09/16 03:44:11;;;;;;;17.63;11.50;;;12.50;99.90;;;;;;4141409;28;20038;-66
2021/09/16 03:46:12;;;;;;;19.70;13.27;;;12.50;99.90;;;;;;4142609;28;20076;-66
2021/09/16 03:48:14;;;;;;;16.70;11.53;;;12.50;99.90;;;;;;4140892;28;20033;-65
2021/09/16 03:50:15;;;;;;;20.07;12.10;;;12.60;99.90;;;;;;4142214;28;20128;-68
2021/09/16 03:52:16;;;;;;;21.20;12.93;;;12.60;99.90;;;;;;4141167;28;20030;-67
2021/09/16 03:54:17;;;;;;;20.83;13.17;;;12.60;99.90;;;;;;4141646;28;20076;-68
2021/09/16 03:56:18;;;;;;;24.37;12.37;;;12.60;99.90;;;;;;4141885;28;20056;-67
2021/09/16 03:58:19;;;;;;;23.03;13.67;;;12.50;99.90;;;;;;4140804;28;20076;-68
2021/09/16 04:00:21;;;;;;;23.27;12.50;;;12.50;99.90;;;;;;4140871;28;20084;-68
2021/09/16 04:02:22;;;;;;;22.70;12.07;;;12.50;99.90;;;;;;4140080;28;20096;-67
2021/09/16 04:04:23;;;;;;;24.60;14.70;;;12.50;99.90;;;;;;4141685;28;20046;-67
2021/09/16 04:06:24;;;;;;;27.33;13.67;;;12.50;99.90;;;;;;4140369;28;21003;-67
2021/09/16 04:08:26;;;;;;;25.33;13.70;;;12.40;99.90;;;;;;4140803;28;20107;-68
2021/09/16 04:10:27;;;;;;;26.50;13.27;;;12.40;99.90;;;;;;4140244;28;20076;-67
2021/09/16 04:12:28;;;;;;;27.17;13.87;;;12.40;99.90;;;;;;4142371;28;20034;-69
2021/09/16 04:14:29;;;;;;;21.30;13.37;;;12.40;99.90;;;;;;4140487;28;20068;-66
2021/09/16 04:16:30;;;;;;;32.83;13.83;;;12.40;99.90;;;;;;4141435;28;20038;-67
2021/09/16 04:18:31;;;;;;;33.63;14.93;;;12.40;99.90;;;;;;4139944;28;20037;-67
2021/09/16 04:20:32;;;;;;;53.50;20.83;;;12.40;99.90;;;;;;4141161;28;20088;-65
2021/09/16 04:22:33;;;;;;;74.07;24.47;;;12.40;99.90;;;;;;4139730;28;20034;-66
2021/09/16 04:24:35;;;;;;;28.07;14.77;;;12.40;99.90;;;;;;4139530;28;20103;-66
2021/09/16 04:26:36;;;;;;;20.30;12.60;;;12.40;99.90;;;;;;4139903;28;20092;-66
2021/09/16 04:28:37;;;;;;;32.67;14.60;;;12.50;99.90;;;;;;4122377;28;20038;-67
2021/09/16 04:30:38;;;;;;;22.00;13.60;;;12.50;99.90;;;;;;4147761;28;20108;-67
2021/09/16 04:32:40;;;;;;;23.07;12.83;;;12.40;99.90;;;;;;4143817;28;20583;-67
2021/09/16 04:34:41;;;;;;;27.50;12.60;;;12.40;99.90;;;;;;4146331;28;20115;-66
2021/09/16 04:36:42;;;;;;;34.60;12.87;;;12.30;99.90;;;;;;4150378;28;20041;-66
2021/09/16 04:38:43;;;;;;;34.53;13.17;;;12.30;99.90;;;;;;4146452;28;20025;-66
2021/09/16 04:40:44;;;;;;;30.73;11.63;;;12.50;99.90;;;;;;4142707;28;20050;-64
2021/09/16 04:42:46;;;;;;;38.07;13.73;;;12.70;99.90;;;;;;4151977;28;20125;-66
2021/09/16 04:44:47;;;;;;;25.43;12.33;;;12.80;99.90;;;;;;4138767;28;20030;-63
2021/09/16 04:46:48;;;;;;;23.87;12.73;;;12.80;99.90;;;;;;4139339;28;20051;-63
2021/09/16 04:48:49;;;;;;;28.57;14.10;;;12.80;99.90;;;;;;4138446;28;20030;-64
2021/09/16 04:50:51;;;;;;;26.27;13.43;;;13.20;99.90;;;;;;4127946;28;20050;-68
2021/09/16 04:52:52;;;;;;;29.57;12.50;;;13.40;99.90;;;;;;4150740;28;20041;-64
2021/09/16 04:54:53;;;;;;;23.73;11.93;;;13.70;99.90;;;;;;4145721;28;20042;-65
2021/09/16 04:56:54;;;;;;;35.93;12.00;;;14.10;99.90;;;;;;4142881;28;20080;-64
2021/09/16 04:58:55;;;;;;;24.37;12.50;;;14.40;99.90;;;;;;4150486;28;20042;-66
2021/09/16 05:00:56;;;;;;;27.70;13.10;;;14.80;99.90;;;;;;4146436;28;20033;-64
2021/09/16 05:02:57;;;;;;;35.53;13.30;;;15.00;99.90;;;;;;4142073;28;20453;-64
2021/09/16 05:04:59;;;;;;;23.57;12.73;;;15.20;99.90;;;;;;4147253;28;20176;-64
2021/09/16 05:07:00;;;;;;;25.30;11.97;;;15.40;99.90;;;;;;4149816;28;20057;-64
2021/09/16 05:09:01;;;;;;;29.25;13.02;;;15.80;99.90;;;;;;4143908;28;20041;-65
2021/09/16 05:11:02;;;;;;;35.58;14.02;;;16.30;99.90;;;;;;4136864;28;20026;-64
2021/09/16 05:13:03;;;;;;;28.67;12.80;;;16.50;99.90;;;;;;4151010;28;20042;-64
2021/09/16 05:15:05;;;;;;;28.70;13.05;;;16.70;99.90;;;;;;4147649;28;20038;-64
2021/09/16 05:17:06;;;;;;;21.15;13.13;;;17.10;99.90;;;;;;4143492;28;20506;-66
2021/09/16 05:19:07;;;;;;;29.50;12.98;;;17.40;99.90;;;;;;4148871;28;20105;-64
2021/09/16 05:21:09;;;;;;;28.55;12.52;;;17.70;99.90;;;;;;4146861;28;20030;-64
2021/09/16 05:23:10;;;;;;;27.65;13.05;;;17.80;99.90;;;;;;4135057;28;20100;-64
2021/09/16 05:25:11;;;;;;;34.08;12.90;;;18.10;99.90;;;;;;4136215;28;20100;-65
2021/09/16 05:27:12;;;;;;;33.10;13.35;;;18.40;99.90;;;;;;4150261;28;20033;-64
2021/09/16 05:29:14;;;;;;;30.08;13.07;;;18.80;99.90;;;;;;4143062;28;20436;-64
2021/09/16 05:31:15;;;;;;;32.22;12.98;;;19.00;99.90;;;;;;4137266;28;20089;-70
2021/09/16 05:33:16;;;;;;;30.80;13.23;;;19.00;99.90;;;;;;4141475;28;20046;-66
2021/09/16 05:35:17;;;;;;;27.08;13.18;;;19.00;99.90;;;;;;4143209;28;20050;-63
2021/09/16 05:37:18;;;;;;;34.08;14.25;;;18.70;99.90;;;;;;4124730;28;20109;-65
2021/09/16 05:39:19;;;;;;;32.85;13.82;;;18.50;99.90;;;;;;4140042;28;20486;-66
2021/09/16 05:41:21;;;;;;;31.33;13.80;;;18.40;99.90;;;;;;4129056;28;20037;-65
2021/09/16 05:43:22;;;;;;;31.75;14.10;;;18.80;99.90;;;;;;4137079;28;20107;-65
2021/09/16 05:45:23;;;;;;;25.67;14.82;;;19.20;99.90;;;;;;4137970;28;20084;-63
2021/09/16 05:47:24;;;;;;;27.45;13.88;;;19.50;99.90;;;;;;4138807;28;20038;-63
2021/09/16 05:49:25;;;;;;;29.77;13.30;;;19.50;99.90;;;;;;4137336;28;20448;-63
2021/09/16 05:51:26;;;;;;;22.45;13.00;;;19.60;99.90;;;;;;4133888;28;20092;-63
2021/09/16 05:53:28;;;;;;;34.70;12.95;;;19.60;99.90;;;;;;4137822;28;20054;-64
2021/09/16 05:55:29;;;;;;;28.02;12.90;;;19.90;99.90;;;;;;4137331;28;20085;-65
2021/09/16 05:57:30;;;;;;;38.90;12.55;;;20.00;99.90;;;;;;4138446;28;20046;-66
2021/09/16 05:59:31;;;;;;;26.80;12.88;;;20.00;99.90;;;;;;4135570;28;20397;-65
2021/09/16 06:01:32;;;;;;;24.83;11.27;;;20.40;99.90;;;;;;4137132;28;20107;-65
2021/09/16 06:03:34;;;;;;;22.85;11.73;;;20.20;99.90;;;;;;4137269;28;20054;-65
2021/09/16 06:05:35;;;;;;;26.33;11.43;;;19.80;99.90;;;;;;4138462;28;20139;-65
2021/09/16 06:07:36;;;;;;;21.35;11.18;;;19.50;99.90;;;;;;4136831;28;20034;-64
2021/09/16 06:09:37;;;;;;;26.25;11.80;;;19.40;99.90;;;;;;4133479;28;20556;-65
2021/09/16 06:11:38;;;;;;;18.00;11.77;;;19.10;99.90;;;;;;4136753;28;20034;-63
2021/09/16 06:13:39;;;;;;;18.67;10.98;;;19.00;99.90;;;;;;4138644;28;20497;-64
2021/09/16 06:15:41;;;;;;;14.88;11.57;;;19.00;99.90;;;;;;4136918;28;20424;-63
2021/09/16 06:17:42;;;;;;;23.60;11.93;;;19.20;99.90;;;;;;4138546;28;20089;-62
2021/09/16 06:19:43;;;;;;;17.38;11.65;;;19.30;99.90;;;;;;4130952;28;20050;-62
2021/09/16 06:21:44;;;;;;;17.42;10.73;;;19.30;99.90;;;;;;4138437;28;20034;-62
2021/09/16 06:23:45;;;;;;;22.83;11.95;;;19.40;99.90;;;;;;4136173;28;20037;-61
2021/09/16 06:25:46;;;;;;;21.90;11.50;;;19.30;99.90;;;;;;4138031;28;20068;-62
2021/09/16 06:27:47;;;;;;;17.00;10.52;;;19.30;99.90;;;;;;4138323;28;20088;-62
2021/09/16 06:29:49;;;;;;;14.73;8.90;;;19.20;99.90;;;;;;4131359;28;20058;-62
2021/09/16 06:31:50;;;;;;;13.95;8.95;;;19.10;99.90;;;;;;4135775;28;20132;-62
2021/09/16 06:33:51;;;;;;;15.98;9.93;;;19.10;99.90;;;;;;4137109;28;20101;-63
2021/09/16 06:35:52;;;;;;;13.65;8.63;;;19.30;99.90;;;;;;4138617;28;20026;-62
2021/09/16 06:37:53;;;;;;;17.88;10.10;;;19.40;99.90;;;;;;4137044;28;20049;-61
2021/09/16 06:39:54;;;;;;;18.67;10.23;;;19.60;99.90;;;;;;4124737;28;21274;-63
2021/09/16 06:41:55;;;;;;;16.30;10.20;;;19.50;99.90;;;;;;4135167;28;20038;-62
2021/09/16 06:43:56;;;;;;;15.73;9.88;;;19.30;99.90;;;;;;4138874;28;20030;-63
2021/09/16 06:45:57;;;;;;;12.38;9.55;;;19.20;99.90;;;;;;4136945;28;20026;-62
2021/09/16 06:47:59;;;;;;;17.98;10.32;;;19.10;99.90;;;;;;4139036;28;20097;-62
2021/09/16 06:50:00;;;;;;;12.73;9.32;;;19.00;99.90;;;;;;4135056;28;20116;-63
2021/09/16 06:52:01;;;;;;;13.82;9.32;;;18.80;99.90;;;;;;4140896;28;20100;-62
2021/09/16 06:54:02;;;;;;;19.60;10.73;;;18.60;99.90;;;;;;4140403;28;20041;-62
2021/09/16 06:56:03;;;;;;;16.75;10.13;;;18.70;99.90;;;;;;4138908;28;20042;-63
2021/09/16 06:58:05;;;;;;;15.88;10.65;;;18.70;99.90;;;;;;4140560;28;20072;-61
2021/09/16 07:00:07;;;;;;;14.40;10.20;;;18.80;99.90;;;;;;4135046;28;20030;-62
2021/09/16 07:02:10;;;;;;;14.05;10.73;;;18.70;99.90;;;;;;4140902;28;20100;-61
2021/09/16 07:04:11;;;;;;;13.05;10.82;;;18.60;99.90;;;;;;4138348;28;20112;-61
2021/09/16 07:06:13;;;;;;;15.90;12.07;;;18.50;99.90;;;;;;4140129;28;20049;-61
2021/09/16 07:08:15;;;;;;;17.25;11.63;;;18.50;99.90;;;;;;4139893;28;20042;-61
2021/09/16 07:10:16;;;;;;;20.48;13.02;;;18.70;99.90;;;;;;4136369;28;20453;-61
2021/09/16 07:12:17;;;;;;;18.98;12.82;;;18.40;99.90;;;;;;4139782;28;20078;-61
2021/09/16 07:14:18;;;;;;;22.00;12.93;;;18.40;99.90;;;;;;4141708;28;20034;-62
2021/09/16 07:16:19;;;;;;;21.40;12.82;;;18.60;99.90;;;;;;4138620;28;20100;-61
2021/09/16 07:18:20;;;;;;;18.05;12.20;;;18.70;99.90;;;;;;4138818;28;20131;-62
2021/09/16 07:20:21;;;;;;;18.65;12.75;;;18.80;99.90;;;;;;4133896;28;20096;-62
2021/09/16 07:22:23;;;;;;;16.83;11.95;;;18.80;99.90;;;;;;4141279;28;20434;-62
2021/09/16 07:24:25;;;;;;;16.75;11.10;;;18.80;99.90;;;;;;4138435;28;20084;-62
2021/09/16 07:26:26;;;;;;;15.95;11.77;;;18.80;99.90;;;;;;4140291;28;20033;-63
2021/09/16 07:28:30;;;;;;;18.33;11.77;;;18.80;99.90;;;;;;4140372;28;20076;-62
2021/09/16 07:30:31;;;;;;;18.17;11.55;;;18.80;99.90;;;;;;4135781;28;20096;-62
2021/09/16 07:32:32;;;;;;;15.35;11.02;;;18.90;99.90;;;;;;4139919;28;20408;-61
2021/09/16 07:34:33;;;;;;;18.15;11.63;;;19.00;99.90;;;;;;4139022;28;20034;-62
2021/09/16 07:36:34;;;;;;;21.58;13.05;;;19.10;99.90;;;;;;4138987;28;20474;-62
2021/09/16 07:38:36;;;;;;;21.58;13.70;;;19.40;99.90;;;;;;4139056;28;20042;-61
2021/09/16 07:40:37;;;;;;;20.13;13.85;;;19.50;99.90;;;;;;4135493;28;20046;-62
2021/09/16 07:42:38;;;;;;;21.27;13.10;;;19.60;99.90;;;;;;4139533;28;20112;-62
2021/09/16 07:44:39;;;;;;;20.42;13.38;;;19.60;99.90;;;;;;4141617;28;20053;-61
2021/09/16 07:46:40;;;;;;;19.25;13.77;;;19.60;99.90;;;;;;4139512;28;20026;-62
2021/09/16 07:48:41;;;;;;;18.30;13.27;;;19.70;99.90;;;;;;4141052;28;20042;-62
2021/09/16 07:50:42;;;;;;;23.65;14.25;;;19.80;99.90;;;;;;4133912;28;20615;-62
2021/09/16 07:52:43;;;;;;;19.38;13.95;;;19.80;99.90;;;;;;4138621;28;20057;-61
2021/09/16 07:54:45;;;;;;;19.38;13.60;;;19.80;99.90;;;;;;4138896;28;20042;-61
2021/09/16 07:56:46;;;;;;;17.25;12.45;;;19.90;99.90;;;;;;4138430;28;20097;-62
2021/09/16 07:58:48;;;;;;;20.00;12.02;;;19.90;99.90;;;;;;4139708;28;20514;-62
2021/09/16 08:00:51;;;;;;;17.58;12.75;;;20.00;99.90;;;;;;4133680;28;20039;-62
2021/09/16 08:02:52;;;;;;;19.90;12.98;;;20.00;99.90;;;;;;4139477;28;20546;-61
2021/09/16 08:04:53;;;;;;;18.60;13.02;;;20.00;99.90;;;;;;4138880;28;20100;-62
2021/09/16 08:06:54;;;;;;;24.45;13.30;;;20.00;99.90;;;;;;4140549;28;20042;-62
2021/09/16 08:08:56;;;;;;;19.35;12.95;;;20.20;99.90;;;;;;4139109;28;20022;-62
2021/09/16 08:10:58;;;;;;;16.13;12.40;;;20.30;99.90;;;;;;4135674;28;20046;-62
2021/09/16 08:12:59;;;;;;;21.55;14.40;;;20.40;99.90;;;;;;4138560;28;20962;-62
2021/09/16 08:15:01;;;;;;;18.58;12.90;;;20.70;99.90;;;;;;4140584;28;20029;-60
2021/09/16 08:17:02;;;;;;;20.33;12.02;;;21.00;99.90;;;;;;4126378;28;20054;-60
2021/09/16 08:19:05;;;;;;;19.02;11.27;;;21.20;99.90;;;;;;4128202;28;20474;-62
2021/09/16 08:21:06;;;;;;;21.65;13.55;;;21.30;99.90;;;;;;4133355;28;20387;-61
2021/09/16 08:23:07;;;;;;;28.58;17.92;;;21.40;99.90;;;;;;4140116;28;20100;-62
2021/09/16 08:25:12;;;;;;;18.98;12.38;;;21.50;99.90;;;;;;4138620;28;20414;-62
2021/09/16 08:27:13;;;;;;;15.88;11.25;;;21.50;99.90;;;;;;4139543;28;20042;-62
2021/09/16 08:29:14;;;;;;;19.42;12.00;;;21.50;99.90;;;;;;4138762;28;20336;-62
2021/09/16 08:31:15;;;;;;;18.75;12.32;;;21.60;99.90;;;;;;4133678;28;20509;-63
2021/09/16 08:33:17;;;;;;;15.10;11.48;;;21.60;99.90;;;;;;4139126;28;20478;-61
2021/09/16 08:35:19;;;;;;;18.50;12.32;;;21.70;99.90;;;;;;4138641;28;20033;-61
2021/09/16 08:37:22;;;;;;;22.80;12.57;;;21.70;99.90;;;;;;4139626;28;20191;-61
2021/09/16 08:39:23;;;;;;;16.48;11.85;;;21.90;99.90;;;;;;4137929;28;20046;-61
2021/09/16 08:41:25;;;;;;;17.35;11.95;;;22.10;99.90;;;;;;4134601;28;20045;-61
2021/09/16 08:43:30;;;;;;;17.20;12.20;;;22.10;99.90;;;;;;4137910;28;20053;-61
2021/09/16 08:45:31;;;;;;;15.10;11.68;;;22.10;99.90;;;;;;4139829;28;20042;-62
2021/09/16 08:47:36;;;;;;;15.52;10.55;;;22.20;99.90;;;;;;4137767;28;20570;-61
2021/09/16 08:49:37;;;;;;;20.08;9.68;;;22.20;99.90;;;;;;4138677;28;20045;-61
2021/09/16 08:51:40;;;;;;;15.93;10.55;;;22.30;99.90;;;;;;4139244;28;20030;-61
2021/09/16 08:53:44;;;;;;;15.32;10.07;;;22.40;99.90;;;;;;4141287;28;20088;-61
2021/09/16 08:55:45;;;;;;;13.10;9.57;;;22.40;99.90;;;;;;4139055;28;20501;-62
2021/09/16 08:57:59;;;;;;;12.95;9.35;;;22.40;99.90;;;;;;4141091;28;20432;-63
2021/09/16 09:00:00;;;;;;;13.55;9.60;;;22.40;99.90;;;;;;4123405;28;20042;-62
2021/09/16 09:02:01;;;;;;;14.02;9.88;;;22.50;99.90;;;;;;4136995;28;20093;-62
2021/09/16 09:04:03;;;;;;;14.55;9.55;;;22.60;99.90;;;;;;4138286;28;20044;-62
2021/09/16 09:06:22;;;;;;;13.35;9.10;;;22.70;99.90;;;;;;4132923;28;20034;-62
2021/09/16 09:08:25;;;;;;;11.75;9.82;;;22.90;99.90;;;;;;4123081;28;20096;-61
2021/09/16 09:10:41;;;;;;;17.77;9.88;;;22.80;99.90;;;;;;4124368;28;20092;-62
2021/09/16 09:12:43;;;;;;;12.85;9.02;;;23.00;99.90;;;;;;4136303;28;20026;-62
2021/09/16 09:14:54;;;;;;;13.38;9.25;;;22.90;99.90;;;;;;4138541;28;20088;-62
2021/09/16 09:16:55;;;;;;;14.73;9.18;;;23.10;99.90;;;;;;4139836;28;20022;-62
2021/09/16 09:18:56;;;;;;;16.75;8.02;;;23.20;99.90;;;;;;4140202;28;20034;-61
2021/09/16 09:21:04;;;;;;;15.02;8.98;;;23.30;99.90;;;;;;4140409;28;20542;-62
2021/09/16 09:23:40;;;;;;;19.05;8.45;;;23.50;99.90;;;;;;4140250;28;20042;-62
2021/09/16 09:25:41;;;;;;;12.95;7.57;;;23.60;99.90;;;;;;4138644;28;20426;-62
2021/09/16 09:27:51;;;;;;;18.60;7.97;;;23.70;99.90;;;;;;4140415;28;20042;-62
2021/09/16 09:30:19;;;;;;;11.35;6.32;;;23.90;99.30;;;;;;4139307;28;20034;-61
2021/09/16 09:32:20;;;;;;;13.23;8.07;;;24.20;98.90;;;;;;4137366;28;20541;-62
2021/09/16 09:34:28;;;;;;;12.27;7.55;;;24.40;99.00;;;;;;4135494;28;20105;-62
2021/09/16 09:36:38;;;;;;;12.38;6.72;;;24.40;98.50;;;;;;4135743;28;20034;-62
2021/09/16 09:38:48;;;;;;;;;;;24.60;98.50;;;;;;4134012;28;20042;-62
2021/09/16 09:40:54;;;;;;;11.13;6.95;;;24.80;97.50;;;;;;4134938;28;19972;-62
2021/09/16 09:43:17;;;;;;;6.70;5.55;;;25.00;97.60;;;;;;4134547;28;20762;-62
2021/09/16 09:45:19;;;;;;;9.18;5.97;;;25.10;97.10;;;;;;4135772;28;20076;-62
2021/09/16 09:47:47;;;;;;;8.40;5.63;;;25.30;97.50;;;;;;4133595;28;20478;-62
2021/09/16 09:49:57;;;;;;;10.63;6.00;;;25.60;97.00;;;;;;4135041;28;20045;-62
2021/09/16 09:51:59;;;;;;;11.00;6.53;;;25.70;96.60;;;;;;4133522;28;20046;-63
2021/09/16 09:54:31;;;;;;;7.72;6.25;;;25.80;96.70;;;;;;4136328;28;20438;-62
2021/09/16 09:56:32;;;;;;;11.73;6.80;;;25.80;95.80;;;;;;4134338;28;20045;-62
2021/09/16 09:58:37;;;;;;;8.82;6.05;;;25.80;96.10;;;;;;4134818;28;20145;-65
2021/09/16 10:00:39;;;;;;;10.82;7.55;;;25.60;95.80;;;;;;4133101;28;20363;-62
2021/09/16 10:02:54;;;;;;;10.70;6.10;;;25.60;95.90;;;;;;4135476;28;20184;-62
2021/09/16 10:04:56;;;;;;;11.50;6.53;;;25.70;95.80;;;;;;4133377;28;20608;-62
2021/09/16 10:06:59;;;;;;;11.55;6.43;;;25.70;95.60;;;;;;4136609;28;20041;-61
2021/09/16 10:09:11;;;;;;;10.85;6.25;;;25.70;95.40;;;;;;4138902;28;20034;-62
2021/09/16 10:11:13;;;;;;;13.90;5.72;;;25.80;94.90;;;;;;4140410;28;20037;-62
2021/09/16 10:13:20;;;;;;;7.57;5.40;;;26.10;95.20;;;;;;4136856;28;20104;-62
2021/09/16 10:15:22;;;;;;;11.07;5.60;;;26.30;94.90;;;;;;4136306;28;20858;-62
2021/09/16 10:17:24;;;;;;;11.45;5.22;;;26.30;94.40;;;;;;4134094;28;20626;-62
2021/09/16 10:19:25;;;;;;;7.43;5.00;;;26.40;94.20;;;;;;4134252;28;20133;-62
2021/09/16 10:21:27;;;;;;;11.35;5.10;;;26.50;93.90;;;;;;4137299;28;20033;-62
2021/09/16 10:23:29;;;;;;;9.57;5.78;;;26.40;93.60;;;;;;4135157;28;20593;-62